Time;durP1;ratioP1;P1;durP2;ratioP2;P2;SDS_P1;SDS_P2;PMS_P1;PMS_P2;Temp;Humidity;BMP_temperature;BMP_pressure;BME280_temperature;BME280_humidity;BME280_pressure;Samples;Min_cycle;Max_cycle;Signal;HPM_P1;HPM_P2
2023/03/03 00:02:09;;;;;;;39.40;14.93;;;;;;;;;;5085127;28;20084;-62
2023/03/03 00:04:35;;;;;;;24.02;15.48;;;;;;;;;;5084100;28;20161;-62
2023/03/03 00:07:01;;;;;;;29.75;14.10;;;;;;;;;;5084076;28;20040;-62
2023/03/03 00:09:28;;;;;;;28.27;13.98;;;;;;;;;;5079342;28;20044;-62
2023/03/03 00:11:55;;;;;;;16.30;10.68;;;;;;;;;;5087053;28;20067;-62
2023/03/03 00:14:25;;;;;;;20.13;10.88;;;;;;;;;;5090808;28;20401;-62
2023/03/03 00:16:52;;;;;;;19.02;11.63;;;;;;;;;;5089834;28;20179;-62
2023/03/03 00:19:19;;;;;;;20.27;11.20;;;;;;;;;;5092969;28;20072;-61
2023/03/03 00:21:46;;;;;;;18.05;11.20;;;;;;;;;;5087972;28;20048;-62
2023/03/03 00:24:27;;;;;;;18.25;9.82;;;;;;;;;;5087944;28;20513;-62
2023/03/03 00:26:55;;;;;;;18.40;12.00;;;;;;;;;;5087423;28;20047;-62
2023/03/03 00:29:27;;;;;;;23.13;12.25;;;;;;;;;;5087452;28;20043;-62
2023/03/03 00:31:53;;;;;;;19.83;13.35;;;;;;;;;;5092049;28;20043;-62
2023/03/03 00:34:29;;;;;;;13.57;9.80;;;;;;;;;;5095208;28;20040;-62
2023/03/03 00:36:56;;;;;;;16.77;11.23;;;;;;;;;;5081433;28;20513;-61
2023/03/03 00:39:35;;;;;;;12.95;9.73;;;;;;;;;;5087239;28;20067;-62
2023/03/03 00:42:04;;;;;;;20.67;10.23;;;;;;;;;;5088705;28;20048;-62
2023/03/03 00:44:46;;;;;;;18.55;11.73;;;;;;;;;;5089224;28;20131;-62
2023/03/03 00:47:15;;;;;;;16.50;10.30;;;;;;;;;;5085613;28;20032;-62
2023/03/03 00:49:42;;;;;;;18.55;10.13;;;;;;;;;;5085095;28;20028;-62
2023/03/03 00:52:12;;;;;;;18.23;9.55;;;;;;;;;;5086569;28;20044;-62
2023/03/03 00:54:38;;;;;;;14.35;8.50;;;;;;;;;;5092897;28;20032;-61
2023/03/03 00:57:05;;;;;;;11.88;7.65;;;;;;;;;;5089265;28;20035;-62
2023/03/03 00:59:31;;;;;;;14.07;8.00;;;;;;;;;;5090077;28;20028;-62
2023/03/03 01:01:57;;;;;;;13.13;8.25;;;;;;;;;;5063707;28;20052;-61
2023/03/03 01:04:23;;;;;;;10.77;6.75;;;;;;;;;;5075472;28;20093;-62
2023/03/03 01:06:49;;;;;;;9.05;6.65;;;;;;;;;;5088262;28;20088;-62
2023/03/03 01:09:15;;;;;;;8.70;6.68;;;;;;;;;;5088531;28;20051;-62
2023/03/03 01:11:41;;;;;;;8.55;6.05;;;;;;;;;;5074053;28;20036;-61
2023/03/03 01:14:08;;;;;;;10.35;6.10;;;;;;;;;;5072178;28;20509;-62
2023/03/03 01:16:34;;;;;;;7.90;5.70;;;;;;;;;;5068020;28;20490;-62
2023/03/03 01:19:00;;;;;;;10.30;6.07;;;;;;;;;;5069197;28;20123;-61
2023/03/03 01:21:26;;;;;;;9.73;6.57;;;;;;;;;;5056308;28;20125;-63
2023/03/03 01:23:52;;;;;;;10.93;5.88;;;;;;;;;;5067075;28;20624;-62
2023/03/03 01:26:18;;;;;;;7.70;5.75;;;;;;;;;;5062588;28;20113;-62
2023/03/03 01:28:44;;;;;;;8.88;6.80;;;;;;;;;;5032158;28;20047;-62
2023/03/03 01:31:11;;;;;;;9.10;5.93;;;;;;;;;;5053460;28;20489;-62
2023/03/03 01:33:37;;;;;;;9.35;5.85;;;;;;;;;;5071664;28;20048;-62
2023/03/03 01:36:04;;;;;;;7.78;5.32;;;;;;;;;;5071881;28;20047;-62
2023/03/03 01:38:30;;;;;;;7.97;5.60;;;;;;;;;;5070661;28;20040;-62
2023/03/03 01:40:57;;;;;;;8.52;5.57;;;;;;;;;;5048843;28;20041;-62
2023/03/03 01:43:26;;;;;;;6.72;4.97;;;;;;;;;;5069201;28;20043;-61
2023/03/03 01:45:52;;;;;;;7.10;5.15;;;;;;;;;;5071782;28;20068;-62
2023/03/03 01:48:41;;;;;;;7.07;4.88;;;;;;;;;;5072403;28;20037;-62
2023/03/03 01:51:23;;;;;;;6.60;4.75;;;;;;;;;;5064800;28;20413;-61
2023/03/03 01:53:57;;;;;;;5.90;4.63;;;;;;;;;;5071588;28;20036;-62
2023/03/03 01:56:24;;;;;;;7.40;5.05;;;;;;;;;;5075958;28;20282;-61
2023/03/03 01:58:55;;;;;;;6.10;5.07;;;;;;;;;;5069195;28;20044;-61
2023/03/03 02:01:24;;;;;;;5.88;4.75;;;;;;;;;;5070187;28;20710;-61
2023/03/03 02:03:52;;;;;;;5.53;3.85;;;;;;;;;;5076255;28;20029;-61
2023/03/03 02:06:19;;;;;;;7.72;4.47;;;;;;;;;;5070427;28;20044;-61
2023/03/03 02:08:45;;;;;;;7.40;4.97;;;;;;;;;;5068560;28;20033;-61
2023/03/03 02:11:13;;;;;;;7.07;5.10;;;;;;;;;;5070453;28;20044;-61
2023/03/03 02:13:39;;;;;;;7.47;4.43;;;;;;;;;;5069947;28;20525;-61
2023/03/03 02:16:05;;;;;;;10.10;4.30;;;;;;;;;;5071096;28;20462;-61
2023/03/03 02:18:31;;;;;;;5.75;4.60;;;;;;;;;;5072835;28;20036;-61
2023/03/03 02:21:02;;;;;;;7.93;5.15;;;;;;;;;;5073491;28;20040;-61
2023/03/03 02:23:41;;;;;;;5.50;4.32;;;;;;;;;;5024045;28;20036;-61
2023/03/03 02:26:09;;;;;;;5.95;4.13;;;;;;;;;;5066127;28;20036;-61
2023/03/03 02:28:36;;;;;;;7.57;3.63;;;;;;;;;;5071442;28;20113;-62
2023/03/03 02:31:02;;;;;;;5.70;4.40;;;;;;;;;;5067998;28;20044;-62
2023/03/03 02:33:28;;;;;;;5.00;3.40;;;;;;;;;;5064453;28;20036;-62
2023/03/03 02:35:55;;;;;;;5.15;3.80;;;;;;;;;;5068593;28;20051;-61
2023/03/03 02:38:24;;;;;;;6.53;3.67;;;;;;;;;;5067837;28;20546;-62
2023/03/03 02:41:00;;;;;;;4.88;3.75;;;;;;;;;;5071278;28;20032;-61
2023/03/03 02:43:29;;;;;;;6.22;3.35;;;;;;;;;;5070201;28;20486;-62
2023/03/03 02:45:55;;;;;;;6.60;3.78;;;;;;;;;;5069526;28;20047;-62
2023/03/03 02:48:21;;;;;;;5.45;3.10;;;;;;;;;;5069365;28;20090;-62
2023/03/03 02:50:47;;;;;;;6.10;3.67;;;;;;;;;;5081752;28;20086;-61
2023/03/03 02:53:13;;;;;;;4.20;2.63;;;;;;;;;;5069413;28;20040;-62
2023/03/03 02:55:39;;;;;;;5.97;3.50;;;;;;;;;;5068095;28;20044;-62
2023/03/03 02:58:05;;;;;;;4.00;2.35;;;;;;;;;;5069312;28;20048;-62
2023/03/03 03:00:32;;;;;;;4.32;2.65;;;;;;;;;;5069255;28;20075;-61
2023/03/03 03:02:58;;;;;;;4.95;2.92;;;;;;;;;;5068643;28;20087;-61
2023/03/03 03:05:24;;;;;;;6.32;2.78;;;;;;;;;;5073575;28;20036;-62
2023/03/03 03:07:50;;;;;;;4.95;2.38;;;;;;;;;;5073457;28;20047;-61
2023/03/03 03:10:16;;;;;;;6.03;2.40;;;;;;;;;;5063661;28;20488;-62
2023/03/03 03:12:42;;;;;;;5.43;2.83;;;;;;;;;;5079659;28;20051;-62
2023/03/03 03:15:09;;;;;;;9.60;3.08;;;;;;;;;;5071202;28;20063;-62
2023/03/03 03:17:37;;;;;;;4.60;2.28;;;;;;;;;;5070237;28;20036;-62
2023/03/03 03:20:03;;;;;;;4.68;2.65;;;;;;;;;;5075453;28;20053;-62
2023/03/03 03:22:29;;;;;;;6.22;2.60;;;;;;;;;;5071745;28;20032;-61
2023/03/03 03:24:55;;;;;;;5.55;2.45;;;;;;;;;;5050699;28;20120;-61
2023/03/03 03:27:22;;;;;;;7.75;3.20;;;;;;;;;;5070148;28;20028;-62
2023/03/03 03:29:48;;;;;;;11.07;2.00;;;;;;;;;;5068742;28;20074;-62
2023/03/03 03:32:14;;;;;;;4.22;2.38;;;;;;;;;;5078525;28;20582;-62
2023/03/03 03:34:40;;;;;;;3.92;2.10;;;;;;;;;;5065778;28;20086;-61
2023/03/03 03:37:08;;;;;;;3.95;2.33;;;;;;;;;;5067542;28;20075;-62
2023/03/03 03:39:35;;;;;;;6.75;2.78;;;;;;;;;;5075484;28;20402;-62
2023/03/03 03:42:01;;;;;;;6.88;2.13;;;;;;;;;;5050341;28;20087;-62
2023/03/03 03:44:27;;;;;;;7.53;2.20;;;;;;;;;;5049661;28;20036;-62
2023/03/03 03:46:53;;;;;;;5.53;2.03;;;;;;;;;;5068675;28;20049;-62
2023/03/03 03:49:20;;;;;;;3.88;2.17;;;;;;;;;;5054048;28;20032;-62
2023/03/03 03:51:46;;;;;;;5.70;2.60;;;;;;;;;;5066277;28;20486;-61
2023/03/03 03:54:12;;;;;;;4.38;2.10;;;;;;;;;;5075467;28;20056;-61
2023/03/03 03:56:38;;;;;;;4.03;1.88;;;;;;;;;;5068042;28;20040;-61
2023/03/03 03:59:08;;;;;;;3.88;2.00;;;;;;;;;;5068617;28;20047;-62
2023/03/03 04:01:34;;;;;;;5.53;2.53;;;;;;;;;;5070857;28;20409;-61
2023/03/03 04:04:00;;;;;;;6.32;1.73;;;;;;;;;;5074177;28;20401;-61
2023/03/03 04:06:26;;;;;;;4.38;1.80;;;;;;;;;;5067035;28;20028;-62
2023/03/03 04:08:52;;;;;;;5.38;2.20;;;;;;;;;;5066658;28;20494;-62
2023/03/03 04:11:18;;;;;;;3.30;2.13;;;;;;;;;;5070204;28;20044;-61
2023/03/03 04:13:44;;;;;;;3.75;1.90;;;;;;;;;;5076094;28;20056;-61
2023/03/03 04:16:10;;;;;;;2.25;1.75;;;;;;;;;;5070464;28;20314;-62
2023/03/03 04:18:37;;;;;;;3.25;1.80;;;;;;;;;;5073092;28;20655;-61
2023/03/03 04:21:03;;;;;;;5.95;2.20;;;;;;;;;;5069508;28;20047;-62
2023/03/03 04:23:29;;;;;;;5.97;1.55;;;;;;;;;;5054264;28;20085;-62
2023/03/03 04:25:55;;;;;;;2.30;1.45;;;;;;;;;;5072680;28;20490;-61
2023/03/03 04:28:24;;;;;;;7.20;1.85;;;;;;;;;;5068438;28;20102;-61
2023/03/03 04:30:50;;;;;;;3.08;1.60;;;;;;;;;;5072819;28;20060;-61
2023/03/03 04:33:16;;;;;;;4.82;1.63;;;;;;;;;;5053629;28;20490;-61
2023/03/03 04:35:42;;;;;;;4.65;1.40;;;;;;;;;;5075285;28;20036;-61
2023/03/03 04:38:08;;;;;;;3.25;2.25;;;;;;;;;;5067790;28;20046;-61
2023/03/03 04:40:34;;;;;;;4.20;2.30;;;;;;;;;;5050246;28;20389;-61
2023/03/03 04:43:00;;;;;;;3.53;1.77;;;;;;;;;;5067804;28;20033;-61
2023/03/03 04:45:26;;;;;;;3.13;1.40;;;;;;;;;;5065236;28;20029;-61
2023/03/03 04:47:52;;;;;;;3.92;2.15;;;;;;;;;;5059914;28;20521;-63
2023/03/03 04:50:19;;;;;;;2.60;1.55;;;;;;;;;;5054996;28;20132;-61
2023/03/03 04:52:45;;;;;;;7.97;1.67;;;;;;;;;;5076150;28;20173;-61
2023/03/03 04:55:12;;;;;;;3.72;1.50;;;;;;;;;;5068721;28;20483;-61
2023/03/03 04:57:39;;;;;;;2.15;1.35;;;;;;;;;;5071219;28;20048;-61
2023/03/03 05:00:05;;;;;;;4.45;1.80;;;;;;;;;;5068679;28;20051;-63
2023/03/03 05:02:31;;;;;;;2.83;1.40;;;;;;;;;;5077110;28;20036;-61
2023/03/03 05:04:58;;;;;;;2.95;1.52;;;;;;;;;;5075488;28;20132;-61
2023/03/03 05:07:24;;;;;;;3.25;1.67;;;;;;;;;;5059902;28;20036;-63
2023/03/03 05:09:50;;;;;;;2.42;1.30;;;;;;;;;;5069642;28;20384;-61
2023/03/03 05:12:16;;;;;;;1.80;1.30;;;;;;;;;;5057643;28;20052;-61
2023/03/03 05:14:42;;;;;;;3.88;1.30;;;;;;;;;;5088871;28;20130;-61
2023/03/03 05:17:09;;;;;;;3.05;1.35;;;;;;;;;;5091269;28;20138;-61
2023/03/03 05:19:35;;;;;;;3.92;1.27;;;;;;;;;;5089613;28;20044;-61
2023/03/03 05:22:01;;;;;;;2.05;1.27;;;;;;;;;;5089078;28;20402;-61
2023/03/03 05:24:27;;;;;;;18.95;2.75;;;;;;;;;;5090859;28;20051;-61
2023/03/03 05:26:53;;;;;;;2.78;1.20;;;;;;;;;;5090277;28;20409;-61
2023/03/03 05:29:19;;;;;;;1.23;1.08;;;;;;;;;;5091600;28;20043;-61
2023/03/03 05:31:45;;;;;;;2.85;1.48;;;;;;;;;;5076292;28;20035;-61
2023/03/03 05:34:12;;;;;;;4.93;1.48;;;;;;;;;;5092455;28;20043;-61
2023/03/03 05:36:38;;;;;;;3.03;1.55;;;;;;;;;;5092399;28;20169;-62
2023/03/03 05:39:04;;;;;;;8.80;2.08;;;;;;;;;;5088987;28;20047;-62
2023/03/03 05:41:30;;;;;;;4.00;1.58;;;;;;;;;;5090309;28;20529;-62
2023/03/03 05:43:56;;;;;;;2.15;1.23;;;;;;;;;;5091051;28;20040;-62
2023/03/03 05:46:23;;;;;;;5.60;1.50;;;;;;;;;;5088784;28;20040;-62
2023/03/03 05:48:49;;;;;;;2.60;1.30;;;;;;;;;;5087444;28;20040;-61
2023/03/03 05:51:15;;;;;;;3.75;1.48;;;;;;;;;;5082679;28;20047;-62
2023/03/03 05:53:42;;;;;;;3.85;2.17;;;;;;;;;;5087413;28;20040;-62
2023/03/03 05:56:08;;;;;;;4.60;1.55;;;;;;;;;;5066236;28;20410;-61
2023/03/03 05:58:34;;;;;;;1.83;1.23;;;;;;;;;;5088212;28;20063;-62
2023/03/03 06:01:00;;;;;;;4.18;2.40;;;;;;;;;;5085331;28;20036;-62
2023/03/03 06:03:26;;;;;;;6.28;1.55;;;;;;;;;;5069102;28;20090;-62
2023/03/03 06:05:52;;;;;;;2.55;1.48;;;;;;;;;;5087516;28;20040;-62
2023/03/03 06:08:18;;;;;;;2.28;1.30;;;;;;;;;;5081022;28;20036;-62
2023/03/03 06:10:45;;;;;;;1.25;1.13;;;;;;;;;;5068857;28;20036;-62
2023/03/03 06:13:11;;;;;;;2.22;1.42;;;;;;;;;;5087971;28;20079;-62
2023/03/03 06:15:37;;;;;;;5.78;1.67;;;;;;;;;;5068199;28;20113;-62
2023/03/03 06:18:04;;;;;;;3.22;1.58;;;;;;;;;;5066970;28;20060;-62
2023/03/03 06:20:30;;;;;;;1.95;1.70;;;;;;;;;;5086063;28;20459;-62
2023/03/03 06:22:56;;;;;;;2.13;1.10;;;;;;;;;;5077548;28;20041;-62
2023/03/03 06:25:22;;;;;;;2.58;1.45;;;;;;;;;;5087425;28;20096;-62
2023/03/03 06:27:49;;;;;;;2.10;1.30;;;;;;;;;;5088307;28;20036;-62
2023/03/03 06:30:15;;;;;;;1.80;1.13;;;;;;;;;;5088827;28;20040;-62
2023/03/03 06:32:41;;;;;;;3.25;2.00;;;;;;;;;;5053612;28;20379;-62
2023/03/03 06:35:07;;;;;;;4.97;1.65;;;;;;;;;;5077523;28;20032;-62
2023/03/03 06:37:33;;;;;;;3.65;1.50;;;;;;;;;;5089845;28;20051;-62
2023/03/03 06:40:00;;;;;;;2.83;1.20;;;;;;;;;;5089160;28;20123;-62
2023/03/03 06:42:26;;;;;;;2.70;1.52;;;;;;;;;;5064711;28;20490;-62
2023/03/03 06:44:52;;;;;;;3.67;1.77;;;;;;;;;;5085184;28;20054;-62
2023/03/03 06:47:18;;;;;;;2.83;1.25;;;;;;;;;;5087360;28;20418;-62
2023/03/03 06:49:44;;;;;;;4.93;1.70;;;;;;;;;;5087703;28;20473;-62
2023/03/03 06:52:24;;;;;;;3.97;1.33;;;;;;;;;;5087955;28;20477;-62
2023/03/03 06:54:51;;;;;;;3.13;1.35;;;;;;;;;;5089573;28;20065;-63
2023/03/03 06:57:38;;;;;;;7.88;2.38;;;;;;;;;;5069220;28;20101;-62
2023/03/03 07:00:23;;;;;;;2.78;1.30;;;;;;;;;;5088445;28;20050;-62
2023/03/03 07:03:05;;;;;;;16.92;2.78;;;;;;;;;;5081439;28;20068;-62
2023/03/03 07:05:33;;;;;;;2.33;1.33;;;;;;;;;;5063613;28;20486;-62
2023/03/03 07:07:59;;;;;;;2.08;1.20;;;;;;;;;;5082145;28;20040;-62
2023/03/03 07:10:29;;;;;;;2.55;1.52;;;;;;;;;;5085419;28;20036;-62
2023/03/03 07:12:57;;;;;;;4.07;1.77;;;;;;;;;;5064424;28;20405;-62
2023/03/03 07:15:27;;;;;;;3.10;1.35;;;;;;;;;;5087227;28;20055;-62
2023/03/03 07:17:57;;;;;;;3.53;2.00;;;;;;;;;;5079191;28;20414;-62
2023/03/03 07:20:24;;;;;;;6.63;1.80;;;;;;;;;;5077628;28;20514;-61
2023/03/03 07:22:52;;;;;;;2.40;1.13;;;;;;;;;;5085563;28;20557;-62
2023/03/03 07:25:27;;;;;;;3.53;2.22;;;;;;;;;;5086151;28;20039;-61
2023/03/03 07:27:55;;;;;;;4.40;1.90;;;;;;;;;;5088765;28;20039;-62
2023/03/03 07:30:26;;;;;;;4.28;1.35;;;;;;;;;;5085706;28;20055;-62
2023/03/03 07:32:55;;;;;;;3.40;1.55;;;;;;;;;;5086067;28;20048;-62
2023/03/03 07:35:33;;;;;;;2.63;1.42;;;;;;;;;;5081538;28;20044;-62
2023/03/03 07:38:00;;;;;;;6.82;1.40;;;;;;;;;;5080339;28;20048;-62
2023/03/03 07:40:29;;;;;;;1.98;1.17;;;;;;;;;;5085926;28;20040;-62
2023/03/03 07:42:55;;;;;;;6.38;1.80;;;;;;;;;;5085287;28;20098;-62
2023/03/03 07:45:29;;;;;;;2.72;1.23;;;;;;;;;;5082368;28;20044;-62
2023/03/03 07:48:00;;;;;;;3.13;1.60;;;;;;;;;;5086012;28;20047;-62
2023/03/03 07:50:26;;;;;;;2.13;1.60;;;;;;;;;;5077665;28;20555;-62
2023/03/03 07:52:59;;;;;;;2.80;1.50;;;;;;;;;;5085373;28;20498;-62
2023/03/03 07:55:36;;;;;;;3.28;1.35;;;;;;;;;;5085047;28;20517;-62
2023/03/03 07:58:13;;;;;;;5.20;1.83;;;;;;;;;;5083078;28;20032;-62
2023/03/03 08:00:39;;;;;;;4.43;2.80;;;;;;;;;;5086650;28;20582;-62
2023/03/03 08:03:12;;;;;;;4.20;2.03;;;;;;;;;;5084461;28;20044;-62
2023/03/03 08:05:39;;;;;;;5.03;2.65;;;;;;;;;;5061040;28;20067;-62
2023/03/03 08:08:08;;;;;;;6.00;2.75;;;;;;;;;;5079700;28;20122;-62
2023/03/03 08:10:37;;;;;;;3.78;2.50;;;;;;;;;;5083312;28;20054;-62
2023/03/03 08:13:13;;;;;;;5.15;3.35;;;;;;;;;;5086297;28;20159;-62
2023/03/03 08:15:39;;;;;;;7.82;3.78;;;;;;;;;;5082298;28;20095;-62
2023/03/03 08:18:14;;;;;;;12.23;5.40;;;;;;;;;;5086856;28;20048;-62
2023/03/03 08:20:45;;;;;;;15.52;8.27;;;;;;;;;;5065219;28;20033;-61
2023/03/03 08:23:12;;;;;;;9.38;4.20;;;;;;;;;;5088584;28;20028;-62
2023/03/03 08:25:38;;;;;;;6.60;3.35;;;;;;;;;;5058687;28;20246;-62
2023/03/03 08:28:05;;;;;;;4.13;3.00;;;;;;;;;;5085015;28;20036;-62
2023/03/03 08:30:31;;;;;;;5.43;3.05;;;;;;;;;;5086069;28;20405;-62
2023/03/03 08:32:57;;;;;;;3.80;2.22;;;;;;;;;;5090045;28;20440;-62
2023/03/03 08:35:23;;;;;;;11.20;3.17;;;;;;;;;;5087388;28;20512;-62
2023/03/03 08:37:49;;;;;;;3.97;2.67;;;;;;;;;;5068258;28;20036;-62
2023/03/03 08:40:15;;;;;;;7.63;3.10;;;;;;;;;;5083973;28;20036;-61
2023/03/03 08:42:41;;;;;;;3.83;2.40;;;;;;;;;;5067277;28;20086;-61
2023/03/03 08:45:08;;;;;;;4.55;2.63;;;;;;;;;;5087530;28;20092;-62
2023/03/03 08:47:34;;;;;;;6.75;2.53;;;;;;;;;;5086715;28;20644;-62
2023/03/03 08:50:00;;;;;;;10.63;2.42;;;;;;;;;;5084632;28;20645;-62
2023/03/03 08:52:26;;;;;;;7.15;2.35;;;;;;;;;;5069357;28;20099;-62
2023/03/03 08:54:53;;;;;;;7.00;2.47;;;;;;;;;;5093747;28;20444;-62
2023/03/03 08:57:19;;;;;;;4.95;2.53;;;;;;;;;;5083964;28;20047;-62
2023/03/03 08:59:46;;;;;;;3.92;1.65;;;;;;;;;;5063352;28;20028;-62
2023/03/03 09:02:13;;;;;;;4.90;1.77;;;;;;;;;;5085262;28;20076;-62
2023/03/03 09:04:39;;;;;;;4.88;2.28;;;;;;;;;;5086257;28;20476;-62
2023/03/03 09:07:05;;;;;;;2.65;1.73;;;;;;;;;;5066585;28;20036;-62
2023/03/03 09:09:31;;;;;;;3.95;1.52;;;;;;;;;;5092795;28;20028;-62
2023/03/03 09:11:59;;;;;;;4.20;1.70;;;;;;;;;;5063886;28;20036;-61
2023/03/03 09:14:28;;;;;;;5.00;2.13;;;4.20;99.90;;;;;;5088022;28;20125;-61
2023/03/03 09:16:55;;;;;;;4.68;1.85;;;4.30;99.90;;;;;;5087258;28;20043;-61
2023/03/03 09:19:31;;;;;;;7.82;2.35;;;4.30;99.90;;;;;;5090632;28;20047;-61
2023/03/03 09:22:17;;;;;;;3.60;1.45;;;;;;;;;;5094547;28;20085;-61
2023/03/03 09:24:43;;;;;;;4.72;1.50;;;;;;;;;;5077849;28;20059;-61
2023/03/03 09:27:33;;;;;;;2.15;0.98;;;;;;;;;;5088479;28;20032;-61
2023/03/03 09:30:12;;;;;;;1.60;1.00;;;;;;;;;;5084439;28;20070;-61
2023/03/03 09:32:38;;;;;;;1.60;1.48;;;;;;;;;;5087092;28;20098;-61
2023/03/03 09:35:23;;;;;;;6.10;1.58;;;;;;;;;;5096167;28;20036;-61
2023/03/03 09:37:50;;;;;;;4.13;1.95;;;;;;;;;;5082298;28;20044;-61
2023/03/03 09:40:31;;;;;;;1.65;1.20;;;;;;;;;;5085231;28;20074;-61
2023/03/03 09:43:02;;;;;;;3.05;1.20;;;;;;;;;;5052396;28;20046;-62
2023/03/03 09:45:47;;;;;;;2.50;1.48;;;;;;;;;;5085683;28;20039;-61
2023/03/03 09:48:25;;;;;;;3.33;0.88;;;4.50;99.90;;;;;;5095134;28;20111;-61
2023/03/03 09:51:17;;;;;;;4.40;1.25;;;5.10;99.90;;;;;;5091245;28;20040;-61
2023/03/03 09:54:01;;;;;;;2.22;0.85;;;;;;;;;;5087434;28;20082;-61
2023/03/03 09:56:34;;;;;;;4.38;1.50;;;;;;;;;;5092838;28;20047;-61
2023/03/03 09:59:06;;;;;;;2.55;1.05;;;;;;;;;;5095467;28;20375;-61
2023/03/03 10:01:32;;;;;;;3.00;1.55;;;;;;;;;;5091473;28;20044;-61
2023/03/03 10:04:13;;;;;;;4.47;1.98;;;;;;;;;;5093181;28;20067;-61
2023/03/03 10:06:39;;;;;;;2.25;1.02;;;;;;;;;;5080474;28;20036;-61
2023/03/03 10:09:24;;;;;;;2.22;1.23;;;;;;;;;;5092558;28;20393;-61
2023/03/03 10:12:05;;;;;;;1.48;0.75;;;;;;;;;;5084083;28;20056;-61
2023/03/03 10:14:50;;;;;;;3.85;1.23;;;;;;;;;;5069192;28;20502;-61
2023/03/03 10:17:25;;;;;;;6.32;1.10;;;;;;;;;;5063043;28;20580;-61
2023/03/03 10:19:51;;;;;;;1.80;1.10;;;;;;;;;;5072224;28;20100;-61
2023/03/03 10:22:19;;;;;;;1.83;0.98;;;;;;;;;;5071291;28;20044;-61
2023/03/03 10:25:09;;;;;;;2.20;0.80;;;;;;;;;;5070433;28;20046;-64
2023/03/03 10:27:49;;;;;;;4.70;1.70;;;;;;;;;;5075093;28;20083;-61
2023/03/03 10:30:27;;;;;;;4.28;1.00;;;;;;;;;;5073051;28;20032;-61
2023/03/03 10:33:10;;;;;;;3.53;0.77;;;;;;;;;;5072857;28;20128;-61
2023/03/03 10:35:42;;;;;;;4.10;1.20;;;;;;;;;;5075956;28;20404;-61
2023/03/03 10:38:23;;;;;;;1.30;0.90;;;;;;;;;;5070112;28;20028;-62
2023/03/03 10:40:52;;;;;;;2.90;0.98;;;;;;;;;;5067677;28;20510;-62
2023/03/03 10:43:25;;;;;;;2.72;1.00;;;;;;;;;;5042368;28;20070;-61
2023/03/03 10:46:21;;;;;;;3.22;1.13;;;5.10;99.90;;;;;;5070407;28;20090;-62
2023/03/03 10:49:05;;;;;;;1.20;0.73;;;;;;;;;;5070443;28;20051;-61
2023/03/03 10:51:44;;;;;;;1.73;0.75;;;;;;;;;;5074443;28;20067;-61
2023/03/03 10:54:10;;;;;;;2.88;1.23;;;;;;;;;;5079885;28;20044;-62
2023/03/03 10:56:55;;;;;;;6.40;1.75;;;;;;;;;;5072288;28;20051;-62
2023/03/03 10:59:33;;;;;;;2.13;0.90;;;;;;;;;;5066481;28;20104;-62
2023/03/03 11:02:01;;;;;;;3.92;1.10;;;;;;;;;;5067487;28;20040;-62
2023/03/03 11:04:46;;;;;;;1.38;0.75;;;;;;;;;;5076545;28;20068;-61
2023/03/03 11:07:21;;;;;;;3.90;1.60;;;;;;;;;;5051728;28;20043;-62
2023/03/03 11:10:01;;;;;;;4.45;1.20;;;;;;;;;;5068506;28;20189;-62
2023/03/03 11:12:46;;;;;;;5.18;1.33;;;;;;;;;;5071374;28;20111;-62
2023/03/03 11:15:13;;;;;;;3.33;1.67;;;;;;;;;;5079121;28;20163;-62
2023/03/03 11:17:41;;;;;;;5.18;1.48;;;;;;;;;;5093897;28;20456;-62
2023/03/03 11:20:25;;;;;;;5.70;1.38;;;;;;;;;;5087737;28;20036;-62
2023/03/03 11:22:51;;;;;;;5.63;1.88;;;;;;;;;;5090252;28;20098;-62
2023/03/03 11:25:20;;;;;;;4.20;1.58;;;;;;;;;;5085636;28;20163;-62
2023/03/03 11:28:03;;;;;;;4.55;1.55;;;;;;;;;;5064537;28;20040;-62
2023/03/03 11:30:47;;;;;;;7.32;1.88;;;;;;;;;;5092505;28;20036;-62
2023/03/03 11:33:19;;;;;;;3.60;1.70;;;;;;;;;;5087595;28;20047;-62
2023/03/03 11:35:50;;;;;;;6.97;1.80;;;;;;;;;;5091294;28;20054;-62
2023/03/03 11:38:38;;;;;;;5.38;1.80;;;5.60;99.90;;;;;;5086868;28;20044;-62
2023/03/03 11:41:30;;;;;;;3.95;1.50;;;6.40;99.90;;;;;;5062638;28;20182;-62
2023/03/03 11:44:08;;;;;;;6.10;2.03;;;6.40;99.90;;;;;;5088465;28;20047;-62
2023/03/03 11:46:42;;;;;;;5.15;2.13;;;6.40;99.90;;;;;;5084272;28;20044;-62
2023/03/03 11:49:21;;;;;;;4.47;1.52;;;6.40;99.90;;;;;;5070243;28;20040;-62
2023/03/03 11:52:02;;;;;;;2.22;1.52;;;6.40;99.90;;;;;;5085529;28;20044;-63
2023/03/03 11:54:53;;;;;;;4.13;1.85;;;6.40;99.90;;;;;;5085754;28;20075;-62
2023/03/03 11:57:50;;;;;;;9.23;1.88;;;6.40;99.90;;;;;;5085921;28;20119;-62
2023/03/03 12:00:27;;;;;;;5.18;1.77;;;6.50;99.90;;;;;;5083613;28;20071;-62
2023/03/03 12:03:21;;;;;;;8.48;2.10;;;6.50;99.90;;;;;;5087759;28;20075;-62
2023/03/03 12:06:04;;;;;;;4.55;2.03;;;6.60;99.90;;;;;;5086286;28;20044;-62
2023/03/03 12:09:02;;;;;;;7.35;2.17;;;6.60;99.90;;;;;;5084812;28;20531;-62
2023/03/03 12:11:27;;;;;;;4.78;1.92;;;6.70;99.90;;;;;;5090705;28;20088;-62
2023/03/03 12:14:11;;;;;;;5.13;2.42;;;6.70;99.90;;;;;;5087522;28;20143;-62
2023/03/03 12:17:05;;;;;;;11.15;2.47;;;6.80;99.90;;;;;;5084733;28;20460;-63
2023/03/03 12:19:57;;;;;;;5.47;1.73;;;6.80;99.90;;;;;;5088158;28;20547;-62
2023/03/03 12:22:34;;;;;;;6.53;2.15;;;6.80;99.90;;;;;;5091131;28;20078;-62
2023/03/03 12:25:08;;;;;;;4.75;1.55;;;6.80;99.90;;;;;;5086399;28;20074;-62
2023/03/03 12:27:53;;;;;;;5.63;2.28;;;6.80;99.90;;;;;;5085498;28;20111;-62
2023/03/03 12:30:40;;;;;;;3.70;1.85;;;6.80;99.90;;;;;;5085051;28;20036;-62
2023/03/03 12:33:18;;;;;;;5.15;1.83;;;6.80;99.90;;;;;;5088861;28;20036;-62
2023/03/03 12:35:49;;;;;;;6.43;2.78;;;6.80;99.90;;;;;;5081525;28;20074;-62
2023/03/03 12:38:32;;;;;;;4.97;1.88;;;6.90;99.90;;;;;;5077824;28;20436;-63
2023/03/03 12:41:14;;;;;;;7.15;2.42;;;6.90;99.90;;;;;;5087150;28;20044;-62
2023/03/03 12:44:33;;;;;;;7.13;2.28;;;6.90;99.90;;;;;;5084495;28;20118;-63
2023/03/03 12:47:03;;;;;;;10.13;3.17;;;6.90;99.90;;;;;;5027666;28;20045;-63
2023/03/03 12:49:53;;;;;;;6.88;2.42;;;7.00;99.90;;;;;;5062829;28;20657;-62
2023/03/03 12:52:59;;;;;;;11.25;2.80;;;7.00;99.90;;;;;;5076331;28;20510;-63
2023/03/03 12:56:07;;;;;;;10.55;2.75;;;7.10;99.90;;;;;;5046085;28;20108;-61
2023/03/03 12:58:43;;;;;;;9.88;3.08;;;7.10;99.90;;;;;;5084778;28;20040;-61
2023/03/03 13:01:37;;;;;;;6.15;2.47;;;7.20;99.90;;;;;;5091364;28;20262;-61
2023/03/03 13:04:22;;;;;;;8.88;2.60;;;7.10;99.90;;;;;;5093127;28;20118;-61
2023/03/03 13:06:55;;;;;;;6.72;2.42;;;7.10;99.90;;;;;;5078336;28;20033;-61
2023/03/03 13:09:40;;;;;;;8.32;3.30;;;7.10;99.90;;;;;;5082226;28;20040;-61
2023/03/03 13:12:14;;;;;;;14.93;4.20;;;7.10;99.90;;;;;;5085815;28;20040;-61
2023/03/03 13:15:19;;;;;;;11.60;3.30;;;7.10;99.90;;;;;;5081046;28;20074;-61
2023/03/03 13:17:55;;;;;;;7.60;3.15;;;7.00;99.90;;;;;;5057149;28;20091;-61
2023/03/03 13:20:43;;;;;;;8.88;3.67;;;7.10;99.90;;;;;;5085094;28;20043;-61
2023/03/03 13:23:37;;;;;;;13.20;4.00;;;7.00;99.90;;;;;;5071452;28;20113;-61
2023/03/03 13:26:20;;;;;;;17.02;4.40;;;7.00;99.90;;;;;;5082838;28;20040;-61
2023/03/03 13:28:49;;;;;;;12.30;4.68;;;7.10;99.90;;;;;;5086937;28;20024;-61
2023/03/03 13:31:39;;;;;;;13.73;4.80;;;7.10;99.90;;;;;;5085842;28;20032;-61
2023/03/03 13:34:12;;;;;;;15.75;3.78;;;7.00;99.90;;;;;;5090048;28;20050;-61
2023/03/03 13:36:40;;;;;;;;;;;7.00;99.90;;;;;;5090348;28;20032;-61
2023/03/03 13:39:28;;;;;;;8.80;3.83;;;7.00;99.90;;;;;;5077429;28;19922;-61
2023/03/03 13:42:01;;;;;;;14.43;3.85;;;7.00;99.90;;;;;;5087535;28;20114;-61
2023/03/03 13:44:40;;;;;;;12.80;4.10;;;7.00;99.90;;;;;;5072510;28;20024;-63
2023/03/03 13:47:15;;;;;;;13.73;4.28;;;7.00;99.90;;;;;;5084726;28;20474;-61
2023/03/03 13:49:56;;;;;;;10.32;3.45;;;7.00;99.90;;;;;;5077973;28;20547;-61
2023/03/03 13:52:27;;;;;;;17.63;4.97;;;7.00;99.90;;;;;;5091464;28;20049;-64
2023/03/03 13:55:04;;;;;;;17.25;4.20;;;7.00;99.90;;;;;;5090463;28;20051;-61
2023/03/03 13:57:57;;;;;;;14.23;4.18;;;7.00;99.90;;;;;;5063938;28;20042;-61
2023/03/03 14:00:35;;;;;;;13.00;5.05;;;7.00;99.90;;;;;;5088507;28;20066;-61
2023/03/03 14:03:26;;;;;;;11.27;4.45;;;7.00;99.90;;;;;;5089876;28;20070;-61
2023/03/03 14:06:13;;;;;;;13.18;4.40;;;7.00;99.90;;;;;;5060611;28;20151;-61
2023/03/03 14:08:48;;;;;;;21.67;5.97;;;7.00;99.90;;;;;;5075363;28;20078;-61
2023/03/03 14:11:42;;;;;;;13.80;3.80;;;7.00;99.90;;;;;;5087123;28;20036;-61
2023/03/03 14:14:39;;;;;;;18.55;4.32;;;7.00;99.90;;;;;;5087877;28;20057;-61
2023/03/03 14:17:17;;;;;;;9.40;4.10;;;7.00;99.90;;;;;;5060166;28;20048;-61
2023/03/03 14:19:47;;;;;;;16.20;3.78;;;7.00;99.90;;;;;;5088979;28;20050;-61
2023/03/03 14:22:28;;;;;;;11.55;3.55;;;7.00;99.90;;;;;;5090396;28;20452;-61
2023/03/03 14:25:08;;;;;;;14.07;5.10;;;7.00;99.90;;;;;;5086435;28;20048;-62
2023/03/03 14:27:51;;;;;;;15.00;3.78;;;7.00;99.90;;;;;;5062690;28;20040;-61
2023/03/03 14:30:28;;;;;;;11.85;4.63;;;6.90;99.90;;;;;;5085596;28;20432;-61
2023/03/03 14:33:02;;;;;;;15.38;4.32;;;6.90;99.90;;;;;;5081104;28;20451;-62
2023/03/03 14:35:34;;;;;;;13.00;4.82;;;6.90;99.90;;;;;;5087631;28;20119;-62
2023/03/03 14:38:12;;;;;;;12.68;4.38;;;6.80;99.90;;;;;;5093764;28;20055;-62
2023/03/03 14:40:42;;;;;;;12.98;4.05;;;6.80;99.90;;;;;;5086679;28;20453;-62
2023/03/03 14:43:26;;;;;;;12.45;3.92;;;6.80;99.90;;;;;;5088626;28;20033;-62